createdAt,value
2018-03-19T00:00:21.638Z,-3.3
2018-03-19T00:01:31.384Z,-3.4
2018-03-19T00:02:40.808Z,-3.43
2018-03-19T00:03:50.508Z,-3.41
2018-03-19T00:05:00.463Z,-3.37
2018-03-19T00:06:10.172Z,-3.44
2018-03-19T00:07:20.135Z,-3.43
2018-03-19T00:08:30.108Z,-3.43
2018-03-19T00:09:39.848Z,-3.44
2018-03-19T00:10:49.806Z,-3.4
2018-03-19T00:11:59.756Z,-3.5
2018-03-19T00:13:09.453Z,-3.47
2018-03-19T00:14:19.156Z,-3.41
2018-03-19T00:15:28.504Z,-3.47
2018-03-19T00:16:37.961Z,-3.47
2018-03-19T00:17:47.400Z,-3.41
2018-03-19T00:18:57.092Z,-3.5
2018-03-19T00:20:07.054Z,-3.47
2018-03-19T00:21:17.014Z,-3.58
2018-03-19T00:22:26.712Z,-3.59
2018-03-19T00:23:36.662Z,-3.55
2018-03-19T00:24:46.631Z,-3.64
2018-03-19T00:25:56.616Z,-3.56
2018-03-19T00:27:06.052Z,-3.69
2018-03-19T00:28:15.485Z,-3.62
2018-03-19T00:29:25.188Z,-3.65
2018-03-19T00:30:34.878Z,-3.64
2018-03-19T00:31:44.844Z,-3.81
2018-03-19T00:32:54.269Z,-3.69
2018-03-19T00:34:03.696Z,-3.69
2018-03-19T00:35:13.380Z,-3.65
2018-03-19T00:36:22.812Z,-3.78
2018-03-19T00:37:32.503Z,-3.71
2018-03-19T00:38:42.199Z,-3.77
2018-03-19T00:39:52.150Z,-3.77
2018-03-19T00:41:01.861Z,-3.78
2018-03-19T00:42:11.812Z,-3.77
2018-03-19T00:43:21.258Z,-3.74
2018-03-19T00:44:30.957Z,-3.8
2018-03-19T00:45:40.942Z,-3.8
2018-03-19T00:46:50.641Z,-3.78
2018-03-19T00:47:59.831Z,-3.8
2018-03-19T00:49:09.777Z,-3.81
2018-03-19T00:50:19.212Z,-3.84
2018-03-19T00:51:29.161Z,-3.9
2018-03-19T00:52:39.129Z,-3.9
2018-03-19T00:53:48.822Z,-3.88
2018-03-19T00:54:58.788Z,-3.99
2018-03-19T00:56:08.739Z,-3.99
2018-03-19T00:57:18.434Z,-3.99
2018-03-19T00:58:28.126Z,-3.94
2018-03-19T00:59:38.096Z,-3.94
2018-03-19T01:00:47.833Z,-4.02
2018-03-19T01:01:57.532Z,-3.99
2018-03-19T01:03:07.492Z,-4.04
2018-03-19T01:04:17.486Z,-4.01
2018-03-19T01:05:27.542Z,-4.04
2018-03-19T01:06:36.972Z,-4.08
2018-03-19T01:07:46.922Z,-4.01
2018-03-19T01:08:56.619Z,-4.02
2018-03-19T01:10:06.583Z,-4.04
2018-03-19T01:11:16.553Z,-4.01
2018-03-19T01:12:26.257Z,-4.06
2018-03-19T01:13:36.214Z,-4.09
2018-03-19T01:14:46.179Z,-4.08
2018-03-19T01:15:56.183Z,-4.06
2018-03-19T01:17:05.876Z,-4.04
2018-03-19T01:18:15.576Z,-4.04
2018-03-19T01:19:25.009Z,-4.02
2018-03-19T01:20:34.464Z,-4.06
2018-03-19T01:21:44.161Z,-4.02
2018-03-19T01:22:54.120Z,-4.02
2018-03-19T01:24:03.811Z,-4.01
2018-03-19T01:25:13.248Z,-3.99
2018-03-19T01:26:22.677Z,-4.05
2018-03-19T01:27:32.366Z,-4.13
2018-03-19T01:28:42.061Z,-4.13
2018-03-19T01:29:51.494Z,-4.17
2018-03-19T01:31:00.947Z,-4.09
2018-03-19T01:32:10.930Z,-4.12
2018-03-19T01:33:20.872Z,-4.06
2018-03-19T01:34:30.341Z,-4.14
2018-03-19T01:35:39.772Z,-4.17
2018-03-19T01:36:49.718Z,-4.14
2018-03-19T01:37:58.890Z,-4.2
2018-03-19T01:39:08.580Z,-4.2
2018-03-19T01:40:18.277Z,-4.2
2018-03-19T01:41:27.979Z,-4.27
2018-03-19T01:42:37.407Z,-4.37
2018-03-19T01:43:47.092Z,-4.31
2018-03-19T01:44:57.105Z,-4.35
2018-03-19T01:46:07.054Z,-4.42
2018-03-19T01:47:16.484Z,-4.35
2018-03-19T01:48:26.709Z,-4.41
2018-03-19T01:49:36.713Z,-4.33
2018-03-19T01:50:46.152Z,-4.4
2018-03-19T01:51:55.586Z,-4.35
2018-03-19T01:53:05.543Z,-4.38
2018-03-19T01:54:15.241Z,-4.31
2018-03-19T01:55:24.948Z,-4.42
2018-03-19T01:56:34.638Z,-4.34
2018-03-19T01:57:44.327Z,-4.49
2018-03-19T01:58:53.774Z,-4.47
2018-03-19T02:00:03.465Z,-4.38
2018-03-19T02:01:13.153Z,-4.44
2018-03-19T02:02:22.850Z,-4.45
2018-03-19T02:03:32.816Z,-4.33
2018-03-19T02:04:42.775Z,-4.35
2018-03-19T02:05:52.719Z,-4.51
2018-03-19T02:07:02.677Z,-4.51
2018-03-19T02:08:12.635Z,-4.35
2018-03-19T02:09:22.599Z,-4.44
2018-03-19T02:10:32.555Z,-4.51
2018-03-19T02:11:42.262Z,-4.44
2018-03-19T02:12:52.205Z,-4.47
2018-03-19T02:14:01.940Z,-4.44
2018-03-19T02:15:11.633Z,-4.41
2018-03-19T02:16:21.325Z,-4.56
2018-03-19T02:17:31.024Z,-4.52
2018-03-19T02:18:41.002Z,-4.47
2018-03-19T02:19:50.953Z,-4.42
2018-03-19T02:21:00.896Z,-4.55
2018-03-19T02:22:10.870Z,-4.56
2018-03-19T02:23:20.554Z,-4.51
2018-03-19T02:24:30.509Z,-4.55
2018-03-19T02:25:40.208Z,-4.56
2018-03-19T02:26:50.137Z,-4.59
2018-03-19T02:27:59.834Z,-4.63
2018-03-19T02:29:09.765Z,-4.62
2018-03-19T02:30:19.480Z,-4.65
2018-03-19T02:31:29.451Z,-4.62
2018-03-19T02:32:39.407Z,-4.53
2018-03-19T02:33:49.370Z,-4.69
2018-03-19T02:34:59.339Z,-4.63
2018-03-19T02:36:09.290Z,-4.7
2018-03-19T02:37:19.269Z,-4.7
2018-03-19T02:38:28.446Z,-4.7
2018-03-19T02:39:38.140Z,-4.71
2018-03-19T02:40:48.110Z,-4.73
2018-03-19T02:41:57.855Z,-4.7
2018-03-19T02:43:07.557Z,-4.73
2018-03-19T02:44:17.257Z,-4.76
2018-03-19T02:45:26.968Z,-4.74
2018-03-19T02:46:36.416Z,-4.84
2018-03-19T02:47:46.422Z,-4.8
2018-03-19T02:48:55.555Z,-4.8
2018-03-19T02:50:04.996Z,-4.74
2018-03-19T02:51:14.437Z,-4.71
2018-03-19T02:52:24.404Z,-4.79
2018-03-19T02:53:34.114Z,-4.79
2018-03-19T02:54:43.551Z,-4.76
2018-03-19T02:55:53.002Z,-4.83
2018-03-19T02:57:02.697Z,-4.84
2018-03-19T02:58:12.421Z,-4.84
2018-03-19T02:59:21.872Z,-4.91
2018-03-19T03:00:31.844Z,-4.9
2018-03-19T03:01:41.802Z,-5.02
2018-03-19T03:02:51.489Z,-5.02
2018-03-19T03:04:01.174Z,-4.98
2018-03-19T03:05:10.620Z,-4.97
2018-03-19T03:06:20.331Z,-5.16
2018-03-19T03:07:30.038Z,-5.02
2018-03-19T03:08:39.742Z,-5.06
2018-03-19T03:09:49.431Z,-5.09
2018-03-19T03:10:59.127Z,-5.05
2018-03-19T03:12:09.084Z,-5.12
2018-03-19T03:13:18.780Z,-5.17
2018-03-19T03:14:28.225Z,-5.13
2018-03-19T03:15:37.648Z,-5.27
2018-03-19T03:16:47.350Z,-5.27
2018-03-19T03:17:57.045Z,-5.21
2018-03-19T03:19:06.986Z,-5.28
2018-03-19T03:20:16.944Z,-5.25
2018-03-19T03:21:26.637Z,-5.28
2018-03-19T03:22:36.331Z,-5.21
2018-03-19T03:23:45.775Z,-5.17
2018-03-19T03:24:55.724Z,-5.17
2018-03-19T03:26:05.688Z,-5.28
2018-03-19T03:27:14.862Z,-5.23
2018-03-19T03:28:24.823Z,-5.25
2018-03-19T03:29:33.740Z,-5.28
2018-03-19T03:30:42.903Z,-5.31
2018-03-19T03:31:52.340Z,-5.41
2018-03-19T03:33:01.773Z,-5.37
2018-03-19T03:34:11.258Z,-5.31
2018-03-19T03:35:20.949Z,-5.39
2018-03-19T03:36:30.380Z,-5.41
2018-03-19T03:37:40.340Z,-5.45
2018-03-19T03:38:50.290Z,-5.52
2018-03-19T03:40:00.241Z,-5.53
2018-03-19T03:41:09.949Z,-5.55
2018-03-19T03:42:19.691Z,-5.58
2018-03-19T03:43:29.132Z,-5.58
2018-03-19T03:44:38.299Z,-5.53
2018-03-19T03:45:48.258Z,-5.66
2018-03-19T03:46:57.959Z,-5.63
2018-03-19T03:48:07.651Z,-5.71
2018-03-19T03:49:17.402Z,-5.63
2018-03-19T03:50:26.838Z,-5.67
2018-03-19T03:51:36.523Z,-5.67
2018-03-19T03:52:46.014Z,-5.71
2018-03-19T03:53:55.966Z,-5.78
2018-03-19T03:55:05.674Z,-5.77
2018-03-19T03:56:15.879Z,-5.68
2018-03-19T03:57:25.833Z,-5.73
2018-03-19T03:58:35.792Z,-5.77
2018-03-19T03:59:45.231Z,-5.74
2018-03-19T04:00:55.182Z,-5.66
2018-03-19T04:02:04.860Z,-5.87
2018-03-19T04:03:14.577Z,-5.76
2018-03-19T04:04:24.275Z,-5.76
2018-03-19T04:05:34.225Z,-5.71
2018-03-19T04:06:44.174Z,-5.78
2018-03-19T04:07:53.862Z,-5.76
2018-03-19T04:09:03.546Z,-5.77
2018-03-19T04:10:13.496Z,-5.81
2018-03-19T04:11:23.444Z,-5.82
2018-03-19T04:12:32.876Z,-5.89
2018-03-19T04:13:42.831Z,-5.82
2018-03-19T04:14:52.268Z,-5.87
2018-03-19T04:16:02.231Z,-5.82
2018-03-19T04:17:11.918Z,-5.78
2018-03-19T04:18:21.353Z,-5.94
2018-03-19T04:19:31.291Z,-5.89
2018-03-19T04:20:41.254Z,-5.95
2018-03-19T04:21:51.212Z,-5.91
2018-03-19T04:23:00.903Z,-5.92
2018-03-19T04:24:10.598Z,-5.88
2018-03-19T04:25:20.582Z,-5.94
2018-03-19T04:26:30.528Z,-5.91
2018-03-19T04:27:40.214Z,-5.94
2018-03-19T04:28:50.173Z,-5.89
2018-03-19T04:29:59.599Z,-5.97
2018-03-19T04:31:09.339Z,-5.95
2018-03-19T04:32:18.770Z,-5.91
2018-03-19T04:33:28.708Z,-5.95
2018-03-19T04:34:38.392Z,-5.94
2018-03-19T04:35:48.080Z,-5.99
2018-03-19T04:36:57.512Z,-5.97
2018-03-19T04:38:07.224Z,-6.06
2018-03-19T04:39:17.197Z,-6
2018-03-19T04:40:26.900Z,-6.12
2018-03-19T04:41:36.865Z,-6.06
2018-03-19T04:42:46.817Z,-6.06
2018-03-19T04:43:56.507Z,-6.05
2018-03-19T04:45:06.469Z,-6.13
2018-03-19T04:46:16.478Z,-6.15
2018-03-19T04:47:26.205Z,-6.1
2018-03-19T04:48:35.900Z,-6.12
2018-03-19T04:49:45.334Z,-6.15
2018-03-19T04:50:55.271Z,-6.1
2018-03-19T04:52:05.220Z,-6.23
2018-03-19T04:53:14.921Z,-6.1
2018-03-19T04:54:24.386Z,-6.12
2018-03-19T04:55:33.823Z,-6.09
2018-03-19T04:56:43.509Z,-6.13
2018-03-19T04:57:53.046Z,-6.06
2018-03-19T04:59:02.740Z,-6.07
2018-03-19T05:00:12.185Z,-6.13
2018-03-19T05:01:21.612Z,-6.06
2018-03-19T05:02:31.072Z,-6.05
2018-03-19T05:03:40.762Z,-6.09
2018-03-19T05:04:50.713Z,-6.12
2018-03-19T05:06:00.678Z,-5.99
2018-03-19T05:07:10.644Z,-6.15
2018-03-19T05:08:20.336Z,-6.13
2018-03-19T05:09:30.318Z,-6.1
2018-03-19T05:10:39.996Z,-6.09
2018-03-19T05:11:50.189Z,-6.16
2018-03-19T05:12:59.360Z,-6.06
2018-03-19T05:14:09.092Z,-6.1
2018-03-19T05:15:18.789Z,-6.09
2018-03-19T05:16:28.486Z,-6.05
2018-03-19T05:17:38.034Z,-6.09
2018-03-19T05:18:47.769Z,-6.12
2018-03-19T05:19:57.726Z,-6.13
2018-03-19T05:21:07.677Z,-6.1
2018-03-19T05:22:17.367Z,-6.15
2018-03-19T05:23:27.084Z,-6.1
2018-03-19T05:24:37.054Z,-6.07
2018-03-19T05:25:47.005Z,-6.07
2018-03-19T05:26:56.754Z,-6.06
2018-03-19T05:28:06.447Z,-6.07
2018-03-19T05:29:16.137Z,-6.12
2018-03-19T05:30:25.832Z,-6.13
2018-03-19T05:31:35.779Z,-6.1
2018-03-19T05:32:44.947Z,-6.05
2018-03-19T05:33:54.633Z,-6.06
2018-03-19T05:35:04.344Z,-6.03
2018-03-19T05:36:14.299Z,-6.12
2018-03-19T05:37:24.303Z,-6.07
2018-03-19T05:38:34.006Z,-5.99
2018-03-19T05:39:43.820Z,-5.91
2018-03-19T05:40:53.788Z,-5.95
2018-03-19T05:42:03.482Z,-6.02
2018-03-19T05:43:13.173Z,-6.03
2018-03-19T05:44:22.867Z,-5.97
2018-03-19T05:45:32.548Z,-5.88
2018-03-19T05:46:42.492Z,-5.94
2018-03-19T05:47:51.667Z,-5.92
2018-03-19T05:49:01.356Z,-5.97
2018-03-19T05:50:10.987Z,-5.91
2018-03-19T05:51:20.942Z,-5.84
2018-03-19T05:52:30.898Z,-5.88
2018-03-19T05:53:40.939Z,-5.81
2018-03-19T05:54:50.605Z,-5.91
2018-03-19T05:56:00.577Z,-5.87
2018-03-19T05:57:10.273Z,-5.78
2018-03-19T05:58:19.187Z,-5.77
2018-03-19T05:59:28.880Z,-5.71
2018-03-19T06:00:38.888Z,-5.84
2018-03-19T06:01:48.856Z,-5.85
2018-03-19T06:02:58.554Z,-5.74
2018-03-19T06:04:08.505Z,-5.74
2018-03-19T06:05:18.516Z,-5.71
2018-03-19T06:06:28.487Z,-5.7
2018-03-19T06:07:38.246Z,-5.71
2018-03-19T06:08:47.418Z,-5.64
2018-03-19T06:09:57.104Z,-5.63
2018-03-19T06:11:07.068Z,-5.58
2018-03-19T06:12:16.514Z,-5.56
2018-03-19T06:13:26.301Z,-5.53
2018-03-19T06:14:36.020Z,-5.53
2018-03-19T06:15:45.980Z,-5.46
2018-03-19T06:16:55.927Z,-5.48
2018-03-19T06:18:05.620Z,-5.45
2018-03-19T06:19:15.319Z,-5.46
2018-03-19T06:20:25.281Z,-5.38
2018-03-19T06:21:35.245Z,-5.37
2018-03-19T06:22:45.221Z,-5.3
2018-03-19T06:23:55.189Z,-5.21
2018-03-19T06:25:05.240Z,-5.3
2018-03-19T06:26:15.206Z,-5.27
2018-03-19T06:27:24.898Z,-5.16
2018-03-19T06:28:34.604Z,-5.19
2018-03-19T06:29:44.574Z,-5.13
2018-03-19T06:30:54.277Z,-5.13
2018-03-19T06:32:03.984Z,-5.06
2018-03-19T06:33:13.946Z,-5.05
2018-03-19T06:34:23.914Z,-5.01
2018-03-19T06:35:33.350Z,-4.91
2018-03-19T06:36:43.098Z,-4.9
2018-03-19T06:37:52.262Z,-4.81
2018-03-19T06:39:02.222Z,-4.8
2018-03-19T06:40:12.203Z,-4.79
2018-03-19T06:41:22.165Z,-4.74
2018-03-19T06:42:31.893Z,-4.61
2018-03-19T06:43:41.848Z,-4.65
2018-03-19T06:44:51.798Z,-4.59
2018-03-19T06:46:01.773Z,-4.53
2018-03-19T06:47:11.534Z,-4.4
2018-03-19T06:48:21.586Z,-4.42
2018-03-19T06:49:31.544Z,-4.37
2018-03-19T06:50:41.506Z,-4.45
2018-03-19T06:51:51.472Z,-4.38
2018-03-19T06:53:01.437Z,-4.27
2018-03-19T06:54:11.123Z,-4.37
2018-03-19T06:55:21.082Z,-4.22
2018-03-19T06:56:31.047Z,-4.22
2018-03-19T06:57:41.005Z,-4.17
2018-03-19T06:58:50.703Z,-4.16
2018-03-19T07:00:00.670Z,-4.05
2018-03-19T07:01:10.371Z,-4.06
2018-03-19T07:02:19.809Z,-3.95
2018-03-19T07:03:29.015Z,-3.91
2018-03-19T07:04:38.720Z,-3.84
2018-03-19T07:05:48.432Z,-3.81
2018-03-19T07:06:58.121Z,-3.8
2018-03-19T07:08:08.079Z,-3.77
2018-03-19T07:09:18.044Z,-3.69
2018-03-19T07:10:28.007Z,-3.69
2018-03-19T07:11:38.045Z,-3.55
2018-03-19T07:12:47.758Z,-3.56
2018-03-19T07:13:57.266Z,-3.51
2018-03-19T07:15:07.228Z,-3.41
2018-03-19T07:16:16.667Z,-3.29
2018-03-19T07:17:26.375Z,-3.26
2018-03-19T07:18:36.338Z,-3.25
2018-03-19T07:19:46.038Z,-3.2
2018-03-19T07:20:55.478Z,-3.12
2018-03-19T07:22:04.662Z,-3.12
2018-03-19T07:23:14.376Z,-3.07
2018-03-19T07:24:24.393Z,-3.01
2018-03-19T07:25:34.360Z,-2.98
2018-03-19T07:26:44.324Z,-2.91
2018-03-19T07:27:54.277Z,-3.01
2018-03-19T07:29:03.474Z,-2.91
2018-03-19T07:30:13.468Z,-2.75
2018-03-19T07:31:23.431Z,-2.84
2018-03-19T07:32:33.512Z,-2.78
2018-03-19T07:33:43.483Z,-2.76
2018-03-19T07:34:53.183Z,-2.62
2018-03-19T07:36:03.170Z,-2.65
2018-03-19T07:37:13.129Z,-2.5
2018-03-19T07:38:22.827Z,-2.61
2018-03-19T07:39:32.878Z,-2.48
2018-03-19T07:40:42.862Z,-2.37
2018-03-19T07:41:52.830Z,-2.37
2018-03-19T07:43:02.790Z,-2.26
2018-03-19T07:44:12.492Z,-2.28
2018-03-19T07:45:22.688Z,-2.32
2018-03-19T07:46:32.878Z,-2.22
2018-03-19T07:47:42.648Z,-2.17
2018-03-19T07:48:51.854Z,-2.13
2018-03-19T07:50:01.570Z,-2.08
2018-03-19T07:51:11.411Z,-2.04
2018-03-19T07:52:21.111Z,-2
2018-03-19T07:53:31.114Z,-2.04
2018-03-19T07:54:40.839Z,-1.84
2018-03-19T07:55:50.552Z,-1.89
2018-03-19T07:57:00.246Z,-1.87
2018-03-19T07:58:10.201Z,-1.72
2018-03-19T07:59:20.176Z,-1.76
2018-03-19T08:00:29.884Z,-1.64
2018-03-19T08:01:39.586Z,-1.58
2018-03-19T08:02:49.549Z,-1.56
2018-03-19T08:03:59.242Z,-1.57
2018-03-19T08:05:08.688Z,-1.57
2018-03-19T08:06:18.403Z,-1.42
2018-03-19T08:07:27.847Z,-1.38
2018-03-19T08:08:37.570Z,-1.36
2018-03-19T08:09:47.267Z,-1.3
2018-03-19T08:10:56.699Z,-1.32
2018-03-19T08:12:06.480Z,-1.27
2018-03-19T08:13:16.536Z,-1.3
2018-03-19T08:14:25.970Z,-1.22
2018-03-19T08:15:35.945Z,-1.27
2018-03-19T08:16:45.733Z,-1.12
2018-03-19T08:17:55.445Z,-1.06
2018-03-19T08:19:05.429Z,-1.06
2018-03-19T08:20:14.611Z,-1.03
2018-03-19T08:21:24.528Z,-0.85
2018-03-19T08:22:34.265Z,-0.77
2018-03-19T08:23:44.482Z,-0.54
2018-03-19T08:24:54.451Z,-0.3
2018-03-19T08:26:04.163Z,-0.06
2018-03-19T08:27:13.803Z,0.16
2018-03-19T08:28:23.571Z,0.45
2018-03-19T08:29:33.541Z,0.68
2018-03-19T08:30:43.012Z,0.85
2018-03-19T08:31:53.008Z,0.99
2018-03-19T08:33:02.992Z,1.13
2018-03-19T08:34:12.188Z,1.24
2018-03-19T08:35:21.930Z,1.2
2018-03-19T08:36:31.590Z,1.16
2018-03-19T08:37:41.575Z,1.1
2018-03-19T08:38:51.028Z,1.31
2018-03-19T08:40:00.730Z,1.38
2018-03-19T08:41:10.516Z,1.49
2018-03-19T08:42:20.295Z,1.42
2018-03-19T08:43:30.254Z,1.49
2018-03-19T08:44:39.964Z,1.58
2018-03-19T08:45:49.732Z,1.81
2018-03-19T08:46:59.445Z,1.98
2018-03-19T08:48:08.895Z,2.07
2018-03-19T08:49:18.603Z,2.14
2018-03-19T08:50:28.076Z,2.26
2018-03-19T08:51:37.789Z,2.32
2018-03-19T08:52:46.978Z,2.3
2018-03-19T08:53:56.710Z,2.4
2018-03-19T08:55:06.173Z,2.26
2018-03-19T08:56:15.925Z,2.14
2018-03-19T08:57:25.393Z,2.23
2018-03-19T08:58:36.088Z,2.32
2018-03-19T08:59:45.814Z,2.28
2018-03-19T09:00:54.999Z,2.37
2018-03-19T09:02:07.518Z,2.41
2018-03-19T09:03:17.558Z,2.52
2018-03-19T09:04:27.190Z,2.73
2018-03-19T09:05:36.908Z,2.69
2018-03-19T09:06:46.617Z,2.82
2018-03-19T09:07:56.064Z,2.94
2018-03-19T09:09:05.834Z,3.21
2018-03-19T09:10:15.548Z,3.26
2018-03-19T09:11:25.759Z,3.24
2018-03-19T09:12:35.237Z,3.48
2018-03-19T09:13:44.488Z,3.73
2018-03-19T09:14:54.243Z,4
2018-03-19T09:16:03.973Z,4.02
2018-03-19T09:17:13.420Z,4.1
2018-03-19T09:18:23.400Z,4.27
2018-03-19T09:19:33.108Z,4.6
2018-03-19T09:20:43.112Z,4.84
2018-03-19T09:21:52.979Z,4.74
2018-03-19T09:23:02.973Z,4.67
2018-03-19T09:24:12.962Z,4.9
2018-03-19T09:25:22.698Z,4.64
2018-03-19T09:26:32.430Z,4.46
2018-03-19T09:27:42.427Z,4.32
2018-03-19T09:28:52.177Z,4.07
2018-03-19T09:30:02.160Z,4.36
2018-03-19T09:31:12.264Z,4.43
2018-03-19T09:32:21.786Z,4.43
2018-03-19T09:33:31.771Z,4.28
2018-03-19T09:34:41.246Z,4.22
2018-03-19T09:35:51.286Z,4.49
2018-03-19T09:37:00.750Z,4.66
2018-03-19T09:38:10.477Z,4.6
2018-03-19T09:39:20.192Z,4.83
2018-03-19T09:40:30.200Z,4.79
2018-03-19T09:41:40.140Z,4.87
2018-03-19T09:42:50.134Z,5
2018-03-19T09:44:00.130Z,5.01
2018-03-19T09:45:10.115Z,5.16
2018-03-19T09:46:19.833Z,5.29
2018-03-19T09:47:29.305Z,5.31
2018-03-19T09:48:38.764Z,5.62
2018-03-19T09:49:48.538Z,5.84
2018-03-19T09:50:57.726Z,5.9
2018-03-19T09:52:07.171Z,5.94
2018-03-19T09:53:16.889Z,6.09
2018-03-19T09:54:26.648Z,5.97
2018-03-19T09:55:36.088Z,5.79
2018-03-19T09:56:46.084Z,5.79
2018-03-19T09:57:56.348Z,5.84
2018-03-19T09:59:06.069Z,5.97
2018-03-19T10:00:15.798Z,6.26
2018-03-19T10:01:24.997Z,6.39
2018-03-19T10:02:34.466Z,6.6
2018-03-19T10:03:44.182Z,6.29
2018-03-19T10:04:54.170Z,6.34
2018-03-19T10:06:03.898Z,6.17
2018-03-19T10:07:13.619Z,5.99
2018-03-19T10:08:23.103Z,5.87
2018-03-19T10:09:32.818Z,5.44
2018-03-19T10:10:42.538Z,5.33
2018-03-19T10:11:51.990Z,5.18
2018-03-19T10:13:01.712Z,4.86
2018-03-19T10:14:11.200Z,4.71
2018-03-19T10:15:20.939Z,4.7
2018-03-19T10:16:30.917Z,4.66
2018-03-19T10:17:40.699Z,4.58
2018-03-19T10:18:50.665Z,4.66
2018-03-19T10:20:00.678Z,4.71
2018-03-19T10:21:10.442Z,4.61
2018-03-19T10:22:20.161Z,4.95
2018-03-19T10:23:29.651Z,5.02
2018-03-19T10:24:39.385Z,5.05
2018-03-19T10:25:49.092Z,5.02
2018-03-19T10:26:58.802Z,5.02
2018-03-19T10:28:08.511Z,4.84
2018-03-19T10:29:18.478Z,4.98
2018-03-19T10:30:28.463Z,5.01
2018-03-19T10:31:38.208Z,5.31
2018-03-19T10:32:47.919Z,5.77
2018-03-19T10:33:57.911Z,5.91
2018-03-19T10:35:07.908Z,6.1
2018-03-19T10:36:17.890Z,6.46
2018-03-19T10:37:27.872Z,6.72
2018-03-19T10:38:37.981Z,6.72
2018-03-19T10:39:48.097Z,6.87
2018-03-19T10:40:58.068Z,6.86
2018-03-19T10:42:07.818Z,6.32
2018-03-19T10:43:17.818Z,6.17
2018-03-19T10:44:27.586Z,6.26
2018-03-19T10:45:37.056Z,6.39
2018-03-19T10:46:46.508Z,6.46
2018-03-19T10:47:56.531Z,6.71
2018-03-19T10:49:06.255Z,6.97
2018-03-19T10:50:15.975Z,7.28
2018-03-19T10:51:25.999Z,7.48
2018-03-19T10:52:35.714Z,7.58
2018-03-19T10:53:45.700Z,7.95
2018-03-19T10:54:55.750Z,8.21
2018-03-19T10:56:05.459Z,8.23
2018-03-19T10:57:15.448Z,7.98
2018-03-19T10:58:25.488Z,8.11
2018-03-19T10:59:35.477Z,7.88
2018-03-19T11:00:45.202Z,8.16
2018-03-19T11:01:55.172Z,7.72
2018-03-19T11:03:05.186Z,7.4
2018-03-19T11:04:15.179Z,7.19
2018-03-19T11:05:24.928Z,7.29
2018-03-19T11:06:34.408Z,7.64
2018-03-19T11:07:44.120Z,7.66
2018-03-19T11:08:53.844Z,7.64
2018-03-19T11:10:03.819Z,7.83
2018-03-19T11:11:13.543Z,8.02
2018-03-19T11:12:23.498Z,8.11
2018-03-19T11:13:33.616Z,8.53
2018-03-19T11:14:43.082Z,8.79
2018-03-19T11:15:52.844Z,8.96
2018-03-19T11:17:02.333Z,9.03
2018-03-19T11:18:12.147Z,9.09
2018-03-19T11:19:21.344Z,9.47
2018-03-19T11:20:31.115Z,9.4
2018-03-19T11:21:41.162Z,9.58
2018-03-19T11:22:50.657Z,9.74
2018-03-19T11:24:00.129Z,10.02
2018-03-19T11:25:10.164Z,10.21
2018-03-19T11:26:20.180Z,10.09
2018-03-19T11:27:29.915Z,9.56
2018-03-19T11:28:38.863Z,9.59
2018-03-19T11:29:48.874Z,9.64
2018-03-19T11:30:58.372Z,9.94
2018-03-19T11:32:08.378Z,9.88
2018-03-19T11:33:18.407Z,10.33
2018-03-19T11:34:28.442Z,10.53
2018-03-19T11:35:38.174Z,10.65
2018-03-19T11:36:47.654Z,10.53
2018-03-19T11:37:57.647Z,10.71
2018-03-19T11:39:07.626Z,11.12
2018-03-19T11:40:17.630Z,11.12
2018-03-19T11:41:26.835Z,11.04
2018-03-19T11:42:36.041Z,11.12
2018-03-19T11:43:45.743Z,11.04
2018-03-19T11:44:55.745Z,10.95
2018-03-19T11:46:05.483Z,11.45
2018-03-19T11:47:15.794Z,11.95
2018-03-19T11:48:25.650Z,12.2
2018-03-19T11:49:35.403Z,12.05
2018-03-19T11:50:44.641Z,11.74
2018-03-19T11:51:54.910Z,11.16
2018-03-19T11:53:04.908Z,10.87
2018-03-19T11:54:14.812Z,10.95
2018-03-19T11:55:24.808Z,11.12
2018-03-19T11:56:34.555Z,10.87
2018-03-19T11:57:44.049Z,10.45
2018-03-19T11:58:54.038Z,10.57
2018-03-19T12:00:04.024Z,10.45
2018-03-19T12:01:13.226Z,10.45
2018-03-19T12:02:22.987Z,10.51
2018-03-19T12:03:32.974Z,10.67
2018-03-19T12:04:42.424Z,11.04
2018-03-19T12:05:52.212Z,11.31
2018-03-19T12:07:01.941Z,11.7
2018-03-19T12:08:12.005Z,11.93
2018-03-19T12:09:21.742Z,12.07
2018-03-19T12:10:31.271Z,11.99
2018-03-19T12:11:41.259Z,12
2018-03-19T12:12:50.993Z,12
2018-03-19T12:14:00.200Z,11.73
2018-03-19T12:15:10.198Z,11.53
2018-03-19T12:16:20.180Z,11.2
2018-03-19T12:17:29.908Z,11.56
2018-03-19T12:18:39.381Z,11.4
2018-03-19T12:19:49.370Z,11.41
2018-03-19T12:20:59.342Z,10.97
2018-03-19T12:22:08.817Z,10.87
2018-03-19T12:23:18.784Z,10.8
2018-03-19T12:24:28.520Z,10.9
2018-03-19T12:25:38.233Z,11.13
2018-03-19T12:26:48.050Z,11.3
2018-03-19T12:27:58.279Z,11.35
2018-03-19T12:29:08.076Z,11.07
2018-03-19T12:30:18.072Z,10.97
2018-03-19T12:31:27.863Z,11
2018-03-19T12:32:37.854Z,11.37
2018-03-19T12:33:47.577Z,10.97
2018-03-19T12:34:57.568Z,11.08
2018-03-19T12:36:07.575Z,11.13
2018-03-19T12:37:17.556Z,11.31
2018-03-19T12:38:27.288Z,11.38
2018-03-19T12:39:37.260Z,11.35
2018-03-19T12:40:47.284Z,11.51
2018-03-19T12:41:57.270Z,11.45
2018-03-19T12:43:07.233Z,11.08
2018-03-19T12:44:16.682Z,11.1
2018-03-19T12:45:26.168Z,11.02
2018-03-19T12:46:36.183Z,11.15
2018-03-19T12:47:46.171Z,10.97
2018-03-19T12:48:55.645Z,10.77
2018-03-19T12:50:05.104Z,11.31
2018-03-19T12:51:15.110Z,11.15
2018-03-19T12:52:24.834Z,11.02
2018-03-19T12:53:34.032Z,10.86
2018-03-19T12:54:43.762Z,10.83
2018-03-19T12:55:53.505Z,11.01
2018-03-19T12:57:03.339Z,11.13
2018-03-19T12:58:13.068Z,11.01
2018-03-19T12:59:23.083Z,11.16
2018-03-19T13:00:32.554Z,11.16
2018-03-19T13:01:42.608Z,11.4
2018-03-19T13:02:52.342Z,11.65
2018-03-19T13:04:01.820Z,11.48
2018-03-19T13:05:11.816Z,11.53
2018-03-19T13:06:21.272Z,11.67
2018-03-19T13:07:30.729Z,11.6
2018-03-19T13:08:40.795Z,11.51
2018-03-19T13:09:50.530Z,11.34
2018-03-19T13:11:00.260Z,10.98
2018-03-19T13:12:10.240Z,10.94
2018-03-19T13:13:19.439Z,10.46
2018-03-19T13:14:29.421Z,10.17
2018-03-19T13:15:38.886Z,10.45
2018-03-19T13:16:48.355Z,10.62
2018-03-19T13:17:57.558Z,10.49
2018-03-19T13:19:07.012Z,10.69
2018-03-19T13:20:16.469Z,10.97
2018-03-19T13:21:26.188Z,11.13
2018-03-19T13:22:35.653Z,11.33
2018-03-19T13:23:45.614Z,11.45
2018-03-19T13:24:54.809Z,11.65
2018-03-19T13:26:04.791Z,11.8
2018-03-19T13:27:14.770Z,12.29
2018-03-19T13:28:24.747Z,11.91
2018-03-19T13:29:34.722Z,12.07
2018-03-19T13:30:44.430Z,11.65
2018-03-19T13:31:54.142Z,11.41
2018-03-19T13:33:03.858Z,10.86
2018-03-19T13:34:13.570Z,10.46
2018-03-19T13:35:23.037Z,10.67
2018-03-19T13:36:32.762Z,10.86
2018-03-19T13:37:42.744Z,10.9
2018-03-19T13:38:52.718Z,11.12
2018-03-19T13:40:02.885Z,10.98
2018-03-19T13:41:12.239Z,11.04
2018-03-19T13:42:21.962Z,10.92
2018-03-19T13:43:31.705Z,10.59
2018-03-19T13:44:41.440Z,10.43
2018-03-19T13:45:51.157Z,10.02
2018-03-19T13:47:00.869Z,10.2
2018-03-19T13:48:10.588Z,10.21
2018-03-19T13:49:20.596Z,10.41
2018-03-19T13:50:30.320Z,10.42
2018-03-19T13:51:46.332Z,10.86
2018-03-19T13:52:56.062Z,10.84
2018-03-19T13:54:05.841Z,10.98
2018-03-19T13:55:15.576Z,11.38
2018-03-19T13:56:25.569Z,11.25
2018-03-19T13:57:35.576Z,10.98
2018-03-19T13:58:45.310Z,10.45
2018-03-19T13:59:55.332Z,10.46
2018-03-19T14:01:05.319Z,10.21
2018-03-19T14:02:15.060Z,10.03
2018-03-19T14:03:24.543Z,9.8
2018-03-19T14:04:33.990Z,9.45
2018-03-19T14:05:44.044Z,9.31
2018-03-19T14:06:54.043Z,8.97
2018-03-19T14:08:03.770Z,8.95
2018-03-19T14:09:13.495Z,9.47
2018-03-19T14:10:23.475Z,9.85
2018-03-19T14:11:33.516Z,9.72
2018-03-19T14:12:43.239Z,9.82
2018-03-19T14:13:52.955Z,9.58
2018-03-19T14:15:02.396Z,9.63
2018-03-19T14:16:11.849Z,9.72
2018-03-19T14:17:21.559Z,10.1
2018-03-19T14:18:31.525Z,10.24
2018-03-19T14:19:41.019Z,10.23
2018-03-19T14:20:50.752Z,10.33
2018-03-19T14:22:00.743Z,10.61
2018-03-19T14:23:10.461Z,10.76
2018-03-19T14:24:20.442Z,10.9
2018-03-19T14:25:30.435Z,11.27
2018-03-19T14:26:40.495Z,11.26
2018-03-19T14:27:50.543Z,11.19
2018-03-19T14:29:00.728Z,11.16
2018-03-19T14:30:10.745Z,10.84
2018-03-19T14:31:20.744Z,10.55
2018-03-19T14:32:30.760Z,10.1
2018-03-19T14:33:40.751Z,9.99
2018-03-19T14:34:50.217Z,9.91
2018-03-19T14:36:00.022Z,10.39
2018-03-19T14:37:10.012Z,10.34
2018-03-19T14:38:20.006Z,10.57
2018-03-19T14:39:30.106Z,10.62
2018-03-19T14:40:39.850Z,10.55
2018-03-19T14:41:49.998Z,10.67
2018-03-19T14:42:59.726Z,10.94
2018-03-19T14:44:09.446Z,10.59
2018-03-19T14:45:19.205Z,10.07
2018-03-19T14:46:28.399Z,9.67
2018-03-19T14:47:38.366Z,9.51
2018-03-19T14:48:48.073Z,9.47
2018-03-19T14:49:57.529Z,9.29
2018-03-19T14:51:07.246Z,9.62
2018-03-19T14:52:17.261Z,9.48
2018-03-19T14:53:26.986Z,9.4
2018-03-19T14:54:36.843Z,9.73
2018-03-19T14:55:46.559Z,10.18
2018-03-19T14:56:56.316Z,10.41
2018-03-19T14:58:06.094Z,10.53
2018-03-19T14:59:16.099Z,10.98
2018-03-19T15:00:26.088Z,10.86
2018-03-19T15:01:35.559Z,10.68
2018-03-19T15:02:45.288Z,10.57
2018-03-19T15:03:55.269Z,10.49
2018-03-19T15:05:05.280Z,10.53
2018-03-19T15:06:14.987Z,10.48
2018-03-19T15:07:24.460Z,10.64
2018-03-19T15:08:33.926Z,10.95